Time;durP1;ratioP1;P1;durP2;ratioP2;P2;SDS_P1;SDS_P2;PMS_P1;PMS_P2;Temp;Humidity;BMP_temperature;BMP_pressure;BME280_temperature;BME280_humidity;BME280_pressure;Samples;Min_cycle;Max_cycle;Signal;HPM_P1;HPM_P2
2023/01/25 14:06:36;;;;;;;33.30;26.00;;;;;;;0.34;70.69;101816.78;105726;1303;558071;-86
2023/01/25 14:09:27;;;;;;;34.70;27.70;;;;;;;0.34;70.47;101814.92;106899;1286;22537;-90
2023/01/25 14:12:50;;;;;;;38.10;30.00;;;;;;;0.31;70.46;101814.73;106925;1291;22614;-85
2023/01/25 14:16:23;;;;;;;33.80;26.30;;;;;;;0.30;70.53;101810.84;106477;1299;22561;-83
2023/01/25 14:18:54;;;;;;;41.10;28.60;;;;;;;0.32;70.81;101809.20;103236;1300;6194571;-85
2023/01/25 14:21:47;;;;;;;34.90;28.50;;;;;;;0.40;70.86;101809.48;108700;1289;22606;-84
2023/01/25 14:25:31;;;;;;;33.50;24.40;;;;;;;0.45;70.89;101802.14;109135;1292;22573;-85
2023/01/25 14:33:05;;;;;;;40.40;28.50;;;;;;;0.37;70.89;101792.35;108136;1292;22675;-86
2023/01/25 14:37:04;;;;;;;39.80;27.00;;;;;;;0.32;70.96;101785.82;109358;1289;22569;-86
2023/01/25 14:40:46;;;;;;;36.40;25.90;;;;;;;0.32;71.23;101784.10;107011;1286;22558;-86
2023/01/25 14:44:16;;;;;;;37.60;29.50;;;;;;;0.32;71.31;101781.66;106742;1289;22648;-87
2023/01/25 14:47:52;;;;;;;38.50;29.20;;;;;;;0.40;71.61;101775.52;106894;1284;22551;-86
2023/01/25 14:51:45;;;;;;;29.90;22.70;;;;;;;0.44;71.38;101774.00;107365;1290;23215;-88
2023/01/25 14:55:33;;;;;;;36.70;26.50;;;;;;;0.33;71.28;101765.10;108199;1291;22711;-86
2023/01/25 14:59:22;;;;;;;36.30;27.70;;;;;;;0.26;71.58;101754.48;108151;1296;22958;-86
2023/01/25 15:02:33;;;;;;;33.80;26.60;;;;;;;0.32;71.76;101755.14;107341;1293;24199;-84
2023/01/25 15:05:45;;;;;;;30.40;23.10;;;;;;;0.29;71.49;101747.04;105403;1302;22611;-87
2023/01/25 15:15:42;;;;;;;31.30;25.20;;;;;;;0.12;71.68;101736.80;105201;1304;558113;-85
2023/01/25 15:19:40;;;;;;;33.60;26.50;;;;;;;0.05;71.64;101740.17;109336;1293;22940;-85
2023/01/25 15:22:50;;;;;;;36.20;28.60;;;;;;;-0.02;71.77;101738.08;109087;1293;22167;-87
2023/01/25 15:26:44;;;;;;;46.20;32.00;;;;;;;-0.15;72.07;101735.77;109371;1293;22371;-88
2023/01/25 15:30:02;;;;;;;39.20;29.10;;;;;;;-0.19;72.49;101723.94;105475;1291;22215;-85
2023/01/25 15:34:24;;;;;;;43.20;30.10;;;;;;;-0.24;72.52;101724.20;109553;1291;22203;-86
2023/01/25 15:37:39;;;;;;;41.20;31.90;;;;;;;-0.22;72.84;101719.64;109823;1285;22234;-84
2023/01/25 15:41:12;;;;;;;43.60;31.70;;;;;;;-0.11;73.04;101709.86;109543;1290;22197;-85
2023/01/25 15:44:46;;;;;;;42.80;30.70;;;;;;;-0.06;72.80;101711.67;109582;1290;22853;-87
2023/01/25 15:49:07;;;;;;;42.00;28.90;;;;;;;-0.02;72.66;101706.20;109611;1284;22390;-88
2023/01/25 15:53:23;;;;;;;40.70;31.00;;;;;;;0.01;72.84;101701.87;109790;1284;22173;-87
2023/01/25 15:57:36;;;;;;;44.40;32.40;;;;;;;0.02;73.20;101701.95;109767;1286;22235;-86
2023/01/25 16:01:53;;;;;;;42.00;31.40;;;;;;;0.12;73.44;101699.00;109805;1287;22379;-87
2023/01/25 16:06:04;;;;;;;48.40;35.30;;;;;;;0.21;72.88;101698.44;109334;1295;22258;-85
2023/01/25 16:09:54;;;;;;;40.80;31.40;;;;;;;0.20;72.71;101699.77;108527;1302;22998;-85
2023/01/25 16:13:50;;;;;;;45.30;34.60;;;;;;;0.06;72.44;101692.95;107216;1308;22398;-85
2023/01/25 16:17:39;;;;;;;37.40;26.60;;;;;;;0.06;72.93;101691.39;107122;1314;22425;-86
2023/01/25 16:25:52;;;;;;;37.10;28.10;;;;;;;-0.03;72.77;101686.41;107053;1316;22194;-87
2023/01/25 16:29:39;;;;;;;36.60;28.00;;;;;;;-0.03;72.66;101684.48;107004;1314;23056;-87
2023/01/25 16:33:25;;;;;;;38.10;27.50;;;;;;;-0.05;72.82;101673.32;107139;1313;22236;-88
2023/01/25 16:37:12;;;;;;;37.00;26.50;;;;;;;-0.06;73.01;101673.77;107161;1310;22210;-87
2023/01/25 16:41:01;;;;;;;36.60;26.90;;;;;;;0.02;72.91;101668.66;107584;1304;22322;-87
2023/01/25 16:44:48;;;;;;;38.30;28.50;;;;;;;0.04;72.70;101664.08;107488;1305;22222;-89
2023/01/25 16:48:45;;;;;;;38.30;28.40;;;;;;;0.05;72.70;101660.48;108260;1299;22453;-86
2023/01/25 16:52:58;;;;;;;40.20;28.30;;;;;;;0.04;72.90;101653.70;109146;1288;22992;-87
2023/01/25 16:57:08;;;;;;;35.20;25.60;;;;;;;0.04;72.86;101645.88;108731;1288;22388;-85
2023/01/25 17:01:11;;;;;;;36.60;27.60;;;;;;;0.03;72.77;101639.77;110038;1282;23174;-85
2023/01/25 17:05:27;;;;;;;36.60;28.10;;;;;;;0.02;72.83;101627.40;109605;1283;22841;-87
2023/01/25 17:09:51;;;;;;;;;;;;;;;;;;;;;
2023/01/25 17:13:52;;;;;;;43.70;32.40;;;;;;;0.12;73.02;101622.91;109715;1289;22149;-87
2023/01/25 17:17:56;;;;;;;36.90;28.90;;;;;;;-0.02;72.66;101623.04;109575;1280;22193;-87
2023/01/25 17:22:04;;;;;;;42.40;31.60;;;;;;;-0.03;73.43;101619.36;109127;1286;22212;-86
2023/01/25 17:26:34;;;;;;;;;;;;;;;;;;;;;
2023/01/25 17:39:00;;;;;;;34.30;28.50;;;;;;;0.21;73.18;101599.30;107950;1308;22748;-87
2023/01/25 17:47:30;;;;;;;37.20;28.70;;;;;;;0.34;73.27;101596.70;107682;1309;22270;-87
2023/01/25 17:51:22;;;;;;;37.60;29.70;;;;;;;0.39;73.36;101591.08;107699;1309;22165;-87
2023/01/25 17:55:15;;;;;;;38.30;27.90;;;;;;;0.40;73.00;101587.98;107442;1312;23201;-87
2023/01/25 17:59:07;;;;;;;37.10;28.00;;;;;;;0.39;73.17;101585.85;107570;1307;22916;-87
2023/01/25 18:03:39;;;;;;;;;;;;;;;;;;;;;
2023/01/25 18:16:14;;;;;;;41.20;29.40;;;;;;;0.39;72.93;101567.50;107955;1306;22209;-86
2023/01/25 18:20:11;;;;;;;39.10;29.30;;;;;;;0.33;73.22;101563.90;108186;1303;22249;-87
2023/01/25 18:24:08;;;;;;;39.90;30.70;;;;;;;0.38;73.41;101563.28;108562;1302;22206;-86
2023/01/25 18:28:22;;;;;;;38.50;29.80;;;;;;;0.41;73.44;101569.69;108150;1307;22186;-87
2023/01/25 18:32:37;;;;;;;44.20;30.10;;;;;;;0.39;73.30;101566.30;107965;1307;22179;-90
2023/01/25 18:47:57;;;;;;;;;;;;;;;;;;;;;
2023/01/25 19:17:56;;;;;;;36.80;28.40;;;;;;;0.26;73.71;101548.11;104873;1317;22979;-88
2023/01/25 19:22:46;;;;;;;;;;;;;;;;;;;;;
2023/01/25 19:31:04;;;;;;;;;;;;;;;;;;;;;
2023/01/25 20:25:15;;;;;;;;;;;;;;;;;;;;;
2023/01/25 20:42:41;;;;;;;39.60;29.60;;;;;;;0.57;72.84;101442.04;108173;1295;22754;-88
2023/01/25 20:56:09;;;;;;;39.50;28.80;;;;;;;0.60;73.22;101436.13;107430;1283;22566;-88
2023/01/25 21:00:26;;;;;;;38.30;26.90;;;;;;;0.58;72.85;101430.81;107809;1283;22562;-86
2023/01/25 21:04:42;;;;;;;;;;;;;;;;;;;;;
2023/01/25 21:08:39;;;;;;;38.70;28.10;;;;;;;0.43;73.41;101434.77;109093;1278;22532;-88
2023/01/25 21:13:08;;;;;;;41.40;28.20;;;;;;;0.43;73.22;101432.52;107523;1284;22642;-89
2023/01/25 21:17:03;;;;;;;28.60;22.40;;;;;;;0.46;73.39;101426.96;106704;1287;22636;-90
2023/01/25 21:20:51;;;;;;;40.10;30.20;;;;;;;0.44;73.73;101422.50;106772;1287;23893;-88
2023/01/25 21:24:41;;;;;;;43.50;30.40;;;;;;;0.48;73.49;101420.12;107195;1282;22545;-87
2023/01/25 21:28:33;;;;;;;39.30;29.40;;;;;;;0.57;73.61;101412.37;107089;1284;22547;-89
2023/01/25 21:36:51;;;;;;;38.50;27.60;;;;;;;0.68;73.46;101398.54;106822;1283;25391;-84
2023/01/25 21:40:45;;;;;;;44.90;32.30;;;;;;;0.64;73.43;101401.10;107287;1278;25497;-85
2023/01/25 21:52:13;;;;;;;47.00;34.20;;;;;;;0.66;73.51;101410.71;106900;1279;22652;-89
2023/01/25 21:56:37;;;;;;;51.40;36.70;;;;;;;0.62;73.48;101411.61;106866;1284;25339;-87
2023/01/25 22:00:55;;;;;;;51.40;35.80;;;;;;;0.67;73.69;101408.53;107170;1289;22820;-88
2023/01/25 22:04:42;;;;;;;47.30;35.90;;;;;;;0.76;73.70;101403.94;106891;1293;22539;-87
2023/01/25 22:08:32;;;;;;;49.80;36.40;;;;;;;0.76;73.45;101401.83;106556;1290;22706;-86
2023/01/25 22:12:18;;;;;;;48.70;34.60;;;;;;;0.76;73.37;101399.91;107387;1284;25540;-87
2023/01/25 22:16:09;;;;;;;53.60;37.10;;;;;;;0.75;73.47;101392.59;106536;1284;24218;-84
2023/01/25 22:27:42;;;;;;;53.70;37.60;;;;;;;0.87;72.87;101390.91;106745;1285;24339;-87
2023/01/25 22:31:31;;;;;;;47.10;36.00;;;;;;;0.87;73.25;101385.17;106232;1278;24329;-86
2023/01/25 22:35:18;;;;;;;55.00;39.30;;;;;;;0.89;73.36;101376.93;106494;1292;22556;-85
2023/01/25 22:39:09;;;;;;;53.10;37.70;;;;;;;0.91;73.09;101378.96;107141;1288;22637;-84
2023/01/25 22:42:57;;;;;;;52.20;37.30;;;;;;;0.90;73.10;101377.36;108003;1283;25438;-85
2023/01/25 22:46:45;;;;;;;48.70;35.20;;;;;;;0.96;73.32;101369.81;108164;1288;22796;-87
2023/01/25 22:50:34;;;;;;;52.10;36.30;;;;;;;1.06;73.13;101365.40;107983;1288;22569;-91
2023/01/25 22:54:23;;;;;;;50.70;38.00;;;;;;;1.09;72.90;101367.13;109582;1288;22567;-87
2023/01/25 22:58:10;;;;;;;53.10;37.80;;;;;;;1.11;72.79;101367.54;109531;1283;22671;-88
2023/01/25 23:02:19;;;;;;;59.00;40.10;;;;;;;1.12;72.64;101363.06;105755;1309;557962;-87
2023/01/25 23:06:37;;;;;;;51.20;39.00;;;;;;;1.12;72.46;101350.60;109804;1289;22098;-86
2023/01/25 23:10:49;;;;;;;48.40;36.30;;;;;;;1.16;72.84;101342.08;107393;1290;22512;-87
2023/01/25 23:15:06;;;;;;;48.70;36.40;;;;;;;1.15;72.60;101331.11;104552;1292;5446027;-86
2023/01/25 23:19:18;;;;;;;50.80;37.80;;;;;;;1.17;72.73;101327.52;107630;1297;22647;-86
2023/01/25 23:23:04;;;;;;;44.20;33.00;;;;;;;1.14;72.61;101327.40;107326;1304;22616;-86
2023/01/25 23:27:23;;;;;;;47.90;34.90;;;;;;;1.06;72.72;101313.70;107680;1306;22978;-87
2023/01/25 23:31:17;;;;;;;46.60;37.00;;;;;;;1.12;72.98;101307.20;107841;1305;22596;-86
2023/01/25 23:35:01;;;;;;;46.10;34.00;;;;;;;1.22;72.68;101304.16;107324;1305;22605;-87
2023/01/25 23:39:13;;;;;;;;;;;;;;;;;;;;;
2023/01/25 23:43:03;;;;;;;44.80;35.10;;;;;;;1.29;72.57;101304.44;107905;1302;22708;-86
2023/01/25 23:46:29;;;;;;;41.10;33.30;;;;;;;1.31;72.51;101296.92;108021;1304;22669;-86
2023/01/25 23:50:00;;;;;;;41.80;33.30;;;;;;;1.31;72.52;101288.41;107855;1304;22587;-87
2023/01/25 23:53:43;;;;;;;47.10;34.10;;;;;;;1.28;72.41;101284.64;106628;1302;22728;-87
2023/01/25 23:57:47;;;;;;;41.90;32.30;;;;;;;1.31;72.42;101282.66;107866;1298;22557;-88
